createdAt,value
2023-01-29T00:01:54.565Z,102243.25
2023-01-29T00:04:39.645Z,102232.13
2023-01-29T00:07:24.516Z,102232.94
2023-01-29T00:10:10.240Z,102234.50
2023-01-29T00:12:55.460Z,102233.91
2023-01-29T00:15:40.791Z,102225.25
2023-01-29T00:18:26.196Z,102227.78
2023-01-29T00:21:12.775Z,102218.41
2023-01-29T00:23:59.335Z,102218.84
2023-01-29T00:26:44.397Z,102227.59
2023-01-29T00:29:29.811Z,102222.53
2023-01-29T00:32:14.889Z,102217.50
2023-01-29T00:34:59.972Z,102217.81
2023-01-29T00:37:44.973Z,102212.66
2023-01-29T00:40:30.277Z,102222.81
2023-01-29T00:43:15.202Z,102220.38
2023-01-29T00:46:00.696Z,102229.47
2023-01-29T00:48:45.878Z,102232.25
2023-01-29T00:51:31.287Z,102237.03
2023-01-29T00:54:16.159Z,102242.81
2023-01-29T00:57:02.391Z,102234.56
2023-01-29T00:59:47.815Z,102235.59
2023-01-29T01:02:32.917Z,102229.88
2023-01-29T01:05:19.071Z,102234.34
2023-01-29T01:08:04.188Z,102239.97
2023-01-29T01:11:05.718Z,102243.81
2023-01-29T01:13:51.074Z,102228.31
2023-01-29T01:16:36.135Z,102222.97
2023-01-29T01:19:21.642Z,102222.03
2023-01-29T01:22:06.485Z,102220.66
2023-01-29T01:24:51.666Z,102212.50
2023-01-29T01:27:36.454Z,102212.66
2023-01-29T01:30:22.269Z,102210.13
2023-01-29T01:33:07.888Z,102198.06
2023-01-29T01:35:53.086Z,102203.16
2023-01-29T01:38:38.300Z,102183.63
2023-01-29T01:41:23.378Z,102195.09
2023-01-29T01:44:46.813Z,102197.94
2023-01-29T01:47:37.967Z,102203.47
2023-01-29T01:50:31.388Z,102193.78
2023-01-29T01:53:22.554Z,102198.84
2023-01-29T01:56:12.786Z,102207.91
2023-01-29T01:58:59.265Z,102207.59
2023-01-29T02:01:49.011Z,102218.19
2023-01-29T02:04:34.507Z,102218.19
2023-01-29T02:07:19.780Z,102224.31
2023-01-29T02:10:16.877Z,102224.00
2023-01-29T02:13:02.470Z,102224.72
2023-01-29T02:15:47.857Z,102231.31
2023-01-29T02:18:33.195Z,102229.66
2023-01-29T02:21:57.159Z,102234.13
2023-01-29T02:25:02.757Z,102222.38
2023-01-29T02:28:02.988Z,102222.97
2023-01-29T02:30:57.062Z,102230.09
2023-01-29T02:34:01.212Z,102235.03
2023-01-29T02:37:08.945Z,102244.97
2023-01-29T02:40:09.762Z,102240.66
2023-01-29T02:43:17.572Z,102251.84
2023-01-29T02:46:27.638Z,102258.81
2023-01-29T02:49:18.542Z,102253.47
2023-01-29T02:52:12.105Z,102248.09
2023-01-29T02:55:04.172Z,102251.34
2023-01-29T02:57:55.039Z,102239.72
2023-01-29T03:00:45.264Z,102243.63
2023-01-29T03:03:38.518Z,102231.28
2023-01-29T03:06:41.613Z,102234.41
2023-01-29T03:09:36.436Z,102226.94
2023-01-29T03:12:27.888Z,102229.78
2023-01-29T03:15:22.545Z,102233.63
2023-01-29T03:18:12.909Z,102229.19
2023-01-29T03:21:03.433Z,102237.69
2023-01-29T03:23:48.546Z,102236.16
2023-01-29T03:26:33.589Z,102226.34
2023-01-29T03:29:19.235Z,102230.97
2023-01-29T03:32:04.453Z,102222.63
2023-01-29T03:34:57.005Z,102225.16
2023-01-29T03:37:46.370Z,102221.88
2023-01-29T03:40:41.432Z,102217.09
2023-01-29T03:43:26.702Z,102219.31
2023-01-29T03:46:40.004Z,102218.28
2023-01-29T03:49:55.901Z,102210.25
2023-01-29T03:53:32.500Z,102218.84
2023-01-29T03:56:26.156Z,102201.63
2023-01-29T03:59:35.400Z,102201.91
2023-01-29T04:02:24.502Z,102206.38
2023-01-29T04:05:17.150Z,102204.75
2023-01-29T04:08:08.243Z,102204.75
2023-01-29T04:10:56.262Z,102203.25
2023-01-29T04:13:41.581Z,102198.75
2023-01-29T04:16:36.303Z,102185.97
2023-01-29T04:19:22.421Z,102179.13
2023-01-29T04:22:23.582Z,102181.97
2023-01-29T04:25:12.867Z,102162.28
2023-01-29T04:28:07.193Z,102152.19
2023-01-29T04:31:11.300Z,102150.34
2023-01-29T04:34:17.518Z,102142.91
2023-01-29T04:37:32.706Z,102132.50
2023-01-29T04:40:23.526Z,102120.00
2023-01-29T04:43:49.103Z,102111.38
2023-01-29T04:46:39.791Z,102096.50
2023-01-29T04:49:33.953Z,102104.38
2023-01-29T04:52:40.912Z,102095.47
2023-01-29T04:55:32.252Z,102092.31
2023-01-29T04:58:39.332Z,102075.50
2023-01-29T05:01:30.030Z,102076.84
2023-01-29T05:04:17.955Z,102085.13
2023-01-29T05:07:09.962Z,102079.34
2023-01-29T05:09:56.189Z,102093.19
2023-01-29T05:12:44.250Z,102103.50
2023-01-29T05:15:37.146Z,102098.06
2023-01-29T05:18:22.356Z,102100.84
2023-01-29T05:21:08.746Z,102104.34
2023-01-29T05:24:15.264Z,102104.06
2023-01-29T05:27:00.747Z,102100.88
2023-01-29T05:29:47.519Z,102112.50
2023-01-29T05:32:32.875Z,102116.38
2023-01-29T05:35:17.738Z,102110.97
2023-01-29T05:38:03.746Z,102118.56
2023-01-29T05:40:48.780Z,102116.19
2023-01-29T05:43:34.155Z,102113.03
2023-01-29T05:46:19.693Z,102115.03
2023-01-29T05:49:05.675Z,102101.63
2023-01-29T05:51:50.757Z,102100.94
2023-01-29T05:54:36.239Z,102104.78
2023-01-29T05:57:21.186Z,102112.16
2023-01-29T06:00:08.042Z,102112.47
2023-01-29T06:02:53.461Z,102119.56
2023-01-29T06:05:39.467Z,102122.09
2023-01-29T06:08:24.479Z,102129.81
2023-01-29T06:11:12.076Z,102132.19
2023-01-29T06:13:57.985Z,102143.97
2023-01-29T06:16:43.262Z,102129.53
2023-01-29T06:19:28.072Z,102125.34
2023-01-29T06:22:13.031Z,102113.44
2023-01-29T06:24:58.290Z,102110.47
2023-01-29T06:27:43.125Z,102112.78
2023-01-29T06:30:27.981Z,102132.84
2023-01-29T06:33:13.360Z,102141.69
2023-01-29T06:36:00.176Z,102138.41
2023-01-29T06:38:46.493Z,102142.09
2023-01-29T06:41:31.369Z,102144.78
2023-01-29T06:44:16.612Z,102145.34
2023-01-29T06:47:01.549Z,102145.28
2023-01-29T06:49:47.094Z,102145.66
2023-01-29T06:52:32.352Z,102151.19
2023-01-29T06:55:17.909Z,102153.22
2023-01-29T06:58:10.760Z,102149.75
2023-01-29T07:01:03.756Z,102142.78
2023-01-29T07:03:50.534Z,102144.78
2023-01-29T07:06:35.824Z,102134.53
2023-01-29T07:09:21.113Z,102129.47
2023-01-29T07:12:06.690Z,102138.94
2023-01-29T07:14:52.036Z,102122.28
2023-01-29T07:17:37.367Z,102121.56
2023-01-29T07:20:24.693Z,102126.63
2023-01-29T07:23:13.961Z,102124.09
2023-01-29T07:26:06.503Z,102124.75
2023-01-29T07:28:51.856Z,102129.69
2023-01-29T07:31:37.347Z,102133.81
2023-01-29T07:34:22.822Z,102130.94
2023-01-29T07:37:08.240Z,102133.59
2023-01-29T07:39:54.101Z,102117.50
2023-01-29T07:42:39.278Z,102113.84
2023-01-29T07:45:24.592Z,102114.13
2023-01-29T07:48:12.114Z,102090.38
2023-01-29T07:50:57.779Z,102105.75
2023-01-29T07:53:42.548Z,102103.22
2023-01-29T07:56:27.995Z,102108.91
2023-01-29T07:59:13.468Z,102099.78
2023-01-29T08:01:58.704Z,102090.53
2023-01-29T08:04:43.533Z,102083.19
2023-01-29T08:07:28.847Z,102082.41
2023-01-29T08:10:13.856Z,102076.19
2023-01-29T08:13:01.394Z,102074.16
2023-01-29T08:15:46.890Z,102067.97
2023-01-29T08:18:32.360Z,102075.72
2023-01-29T08:21:18.181Z,102069.00
2023-01-29T08:24:03.459Z,102063.69
2023-01-29T08:26:48.764Z,102049.06
2023-01-29T08:29:34.012Z,102051.75
2023-01-29T08:32:19.379Z,102049.34
2023-01-29T08:35:04.574Z,102042.91
2023-01-29T08:38:01.102Z,102032.59
2023-01-29T08:40:46.837Z,102029.84
2023-01-29T08:43:31.776Z,102032.22
2023-01-29T08:46:16.795Z,102037.56
2023-01-29T08:49:02.533Z,102040.53
2023-01-29T08:51:47.572Z,102037.09
2023-01-29T08:54:32.705Z,102033.56
2023-01-29T08:57:17.772Z,102030.25
2023-01-29T09:00:03.115Z,102023.28
2023-01-29T09:02:48.240Z,102014.66
2023-01-29T09:05:35.200Z,102001.06
2023-01-29T09:08:20.725Z,101991.94
2023-01-29T09:11:06.339Z,101989.66
2023-01-29T09:13:51.869Z,101979.88
2023-01-29T09:16:36.980Z,101981.78
2023-01-29T09:19:22.667Z,101984.22
2023-01-29T09:22:08.309Z,101985.09
2023-01-29T09:24:54.353Z,101978.88
2023-01-29T09:27:39.785Z,101981.66
2023-01-29T09:30:25.079Z,101975.97
2023-01-29T09:33:10.296Z,101974.94
2023-01-29T09:35:55.137Z,101960.97
2023-01-29T09:38:40.173Z,101960.72
2023-01-29T09:41:47.266Z,101976.72
2023-01-29T09:44:46.513Z,101972.81
2023-01-29T09:47:34.672Z,101971.41
2023-01-29T09:50:23.638Z,101966.06
2023-01-29T09:53:30.902Z,101962.22
2023-01-29T09:56:21.046Z,101964.03
2023-01-29T09:59:12.273Z,101961.09
2023-01-29T10:02:20.411Z,101963.88
2023-01-29T10:05:29.004Z,101953.97
2023-01-29T10:08:52.322Z,101958.38
2023-01-29T10:11:58.395Z,101951.16
2023-01-29T10:15:15.309Z,101958.91
2023-01-29T10:18:15.519Z,101941.94
2023-01-29T10:21:14.463Z,101932.19
2023-01-29T10:24:18.615Z,101930.41
2023-01-29T10:27:12.832Z,101925.94
2023-01-29T10:30:00.693Z,101908.66
2023-01-29T10:32:47.738Z,101908.63
2023-01-29T10:35:41.431Z,101894.63
2023-01-29T10:38:40.139Z,101895.75
2023-01-29T10:41:46.847Z,101892.38
2023-01-29T10:44:52.216Z,101886.00
2023-01-29T10:47:49.747Z,101874.03
2023-01-29T10:50:54.946Z,101875.69
2023-01-29T10:53:55.619Z,101863.63
2023-01-29T10:56:59.512Z,101853.69
2023-01-29T10:59:48.142Z,101853.03
2023-01-29T11:02:33.992Z,101846.19
2023-01-29T11:05:41.189Z,101837.00
2023-01-29T11:08:33.033Z,101830.91
2023-01-29T11:11:20.347Z,101828.72
2023-01-29T11:14:10.211Z,101831.38
2023-01-29T11:16:55.863Z,101826.53
2023-01-29T11:19:44.330Z,101831.09
2023-01-29T11:22:30.935Z,101809.84
2023-01-29T11:25:15.997Z,101813.16
2023-01-29T11:28:03.963Z,101814.16
2023-01-29T11:30:50.967Z,101810.38
2023-01-29T11:33:36.615Z,101804.06
2023-01-29T11:36:39.114Z,101806.88
2023-01-29T11:39:26.018Z,101804.56
2023-01-29T11:42:20.194Z,101796.28
2023-01-29T11:45:25.938Z,101786.09
2023-01-29T11:48:17.053Z,101788.09
2023-01-29T11:51:04.286Z,101783.59
2023-01-29T11:53:58.835Z,101782.28
2023-01-29T11:56:46.759Z,101769.97
2023-01-29T11:59:40.779Z,101765.63
2023-01-29T12:02:34.551Z,101751.38
2023-01-29T12:05:23.733Z,101737.75
2023-01-29T12:08:17.839Z,101737.75
2023-01-29T12:11:15.808Z,101731.09
2023-01-29T12:14:03.822Z,101721.69
2023-01-29T12:16:55.013Z,101731.22
2023-01-29T12:20:01.794Z,101721.94
2023-01-29T12:23:23.015Z,101718.19
2023-01-29T12:26:19.320Z,101712.84
2023-01-29T12:29:35.446Z,101695.03
2023-01-29T12:32:39.208Z,101698.47
2023-01-29T12:35:29.553Z,101699.50
2023-01-29T12:38:18.883Z,101679.88
2023-01-29T12:41:14.360Z,101665.03
2023-01-29T12:44:05.739Z,101668.69
2023-01-29T12:46:55.654Z,101653.66
2023-01-29T12:49:42.530Z,101661.28
2023-01-29T12:52:36.703Z,101649.31
2023-01-29T12:55:39.389Z,101655.50
2023-01-29T12:58:32.336Z,101650.75
2023-01-29T13:01:45.105Z,101644.00
2023-01-29T13:04:42.154Z,101642.91
2023-01-29T13:07:32.226Z,101649.66
2023-01-29T13:10:28.252Z,101638.47
2023-01-29T13:13:27.623Z,101643.00
2023-01-29T13:16:14.786Z,101638.81
2023-01-29T13:19:06.841Z,101643.22
2023-01-29T13:21:56.301Z,101642.34
2023-01-29T13:24:47.854Z,101641.56
2023-01-29T13:27:36.668Z,101635.34
2023-01-29T13:30:29.084Z,101633.59
2023-01-29T13:33:23.925Z,101633.59
2023-01-29T13:36:25.059Z,101627.63
2023-01-29T13:39:20.880Z,101621.66
2023-01-29T13:42:17.644Z,101609.00
2023-01-29T13:45:05.777Z,101607.34
2023-01-29T13:47:52.630Z,101603.25
2023-01-29T13:50:42.876Z,101604.91
2023-01-29T13:53:35.545Z,101592.06
2023-01-29T13:56:43.019Z,101593.06
2023-01-29T13:59:51.803Z,101601.72
2023-01-29T14:02:37.071Z,101591.75
2023-01-29T14:05:31.681Z,101582.34
2023-01-29T14:08:35.392Z,101583.22
2023-01-29T14:11:20.226Z,101581.56
2023-01-29T14:14:44.102Z,101573.34
2023-01-29T14:17:29.780Z,101569.16
2023-01-29T14:20:21.185Z,101552.28
2023-01-29T14:23:08.134Z,101558.50
2023-01-29T14:25:53.665Z,101565.38
2023-01-29T14:28:40.216Z,101559.25
2023-01-29T14:31:59.447Z,101551.41
2023-01-29T14:34:49.220Z,101554.09
2023-01-29T14:37:38.692Z,101545.78
2023-01-29T14:40:26.702Z,101557.38
2023-01-29T14:43:30.510Z,101553.28
2023-01-29T14:46:34.047Z,101545.66
2023-01-29T14:49:55.644Z,101553.28
2023-01-29T14:52:43.046Z,101548.88
2023-01-29T14:55:39.732Z,101545.44
2023-01-29T14:58:27.941Z,101546.53
2023-01-29T15:01:39.627Z,101546.53
2023-01-29T15:04:30.438Z,101538.81
2023-01-29T15:07:25.287Z,101534.59
2023-01-29T15:10:42.463Z,101543.44
2023-01-29T15:13:42.713Z,101535.00
2023-01-29T15:17:02.451Z,101533.03
2023-01-29T15:19:48.892Z,101525.28
2023-01-29T15:22:42.894Z,101534.59
2023-01-29T15:25:33.802Z,101528.69
2023-01-29T15:28:19.245Z,101526.94
2023-01-29T15:31:12.509Z,101527.94
2023-01-29T15:33:58.871Z,101526.81
2023-01-29T15:36:43.999Z,101527.03
2023-01-29T15:39:29.136Z,101526.94
2023-01-29T15:42:14.955Z,101531.25
2023-01-29T15:44:59.900Z,101537.22
2023-01-29T15:47:45.130Z,101513.53
2023-01-29T15:50:32.760Z,101535.47
2023-01-29T15:53:21.391Z,101516.75
2023-01-29T15:56:11.656Z,101512.34
2023-01-29T15:59:00.498Z,101509.88
2023-01-29T16:01:45.751Z,101517.50
2023-01-29T16:04:31.627Z,101514.22
2023-01-29T16:07:17.254Z,101503.16
2023-01-29T16:10:03.712Z,101503.22
2023-01-29T16:12:51.148Z,101498.81
2023-01-29T16:15:38.664Z,101498.13
2023-01-29T16:18:28.988Z,101503.91
2023-01-29T16:21:25.550Z,101496.38
2023-01-29T16:24:13.115Z,101488.63
2023-01-29T16:27:01.844Z,101504.91
2023-01-29T16:29:47.483Z,101481.97
2023-01-29T16:32:32.332Z,101479.53
2023-01-29T16:35:18.285Z,101464.72
2023-01-29T16:38:23.744Z,101476.75
2023-01-29T16:41:21.606Z,101483.44
2023-01-29T16:44:15.911Z,101479.09
2023-01-29T16:47:22.052Z,101467.81
2023-01-29T16:50:30.731Z,101476.34
2023-01-29T16:53:21.790Z,101471.38
2023-01-29T16:56:08.701Z,101468.16
2023-01-29T16:58:54.904Z,101452.66
2023-01-29T17:01:41.120Z,101455.41
2023-01-29T17:04:27.561Z,101466.56
2023-01-29T17:07:17.178Z,101457.19
2023-01-29T17:10:05.219Z,101457.09
2023-01-29T17:13:08.337Z,101451.28
2023-01-29T17:16:00.228Z,101455.41
2023-01-29T17:18:45.450Z,101451.09
2023-01-29T17:21:30.434Z,101459.06
2023-01-29T17:24:15.707Z,101446.19
2023-01-29T17:27:01.986Z,101452.19
2023-01-29T17:29:47.981Z,101455.72
2023-01-29T17:32:44.417Z,101448.41
2023-01-29T17:35:30.139Z,101449.75
2023-01-29T17:38:25.593Z,101443.31
2023-01-29T17:41:13.993Z,101441.63
2023-01-29T17:43:59.038Z,101436.66
2023-01-29T17:46:44.385Z,101448.50
2023-01-29T17:49:30.402Z,101452.91
2023-01-29T17:52:15.631Z,101443.50
2023-01-29T17:55:00.813Z,101443.50
2023-01-29T17:57:46.351Z,101432.31
2023-01-29T18:00:32.077Z,101442.44
2023-01-29T18:03:17.450Z,101445.44
2023-01-29T18:06:02.573Z,101448.25
2023-01-29T18:08:47.753Z,101447.25
2023-01-29T18:11:33.076Z,101464.44
2023-01-29T18:14:18.440Z,101459.00
2023-01-29T18:17:03.399Z,101472.41
2023-01-29T18:19:48.715Z,101482.38
2023-01-29T18:22:33.617Z,101485.72
2023-01-29T18:25:20.259Z,101482.84
2023-01-29T18:28:05.958Z,101472.22
2023-01-29T18:30:51.284Z,101474.22
2023-01-29T18:33:36.525Z,101454.88
2023-01-29T18:36:21.977Z,101448.59
2023-01-29T18:39:07.241Z,101463.28
2023-01-29T18:41:52.143Z,101452.00
2023-01-29T18:44:37.175Z,101443.16
2023-01-29T18:47:22.584Z,101424.69
2023-01-29T18:50:08.501Z,101414.50
2023-01-29T18:52:54.395Z,101416.50
2023-01-29T18:55:39.485Z,101422.56
2023-01-29T18:58:26.997Z,101422.31
2023-01-29T19:01:19.532Z,101425.19
2023-01-29T19:04:04.769Z,101427.88
2023-01-29T19:06:49.660Z,101417.22
2023-01-29T19:09:35.194Z,101408.03
2023-01-29T19:12:22.164Z,101391.53
2023-01-29T19:15:08.849Z,101397.69
2023-01-29T19:17:55.062Z,101389.72
2023-01-29T19:20:43.570Z,101390.91
2023-01-29T19:23:29.027Z,101386.25
2023-01-29T19:26:14.648Z,101378.59
2023-01-29T19:29:00.949Z,101367.72
2023-01-29T19:31:47.348Z,101364.28
2023-01-29T19:34:32.414Z,101348.34
2023-01-29T19:37:17.866Z,101339.22
2023-01-29T19:40:03.191Z,101345.31
2023-01-29T19:42:48.312Z,101334.75
2023-01-29T19:45:49.245Z,101333.78
2023-01-29T19:48:36.425Z,101325.53
2023-01-29T19:51:21.764Z,101315.94
2023-01-29T19:54:07.040Z,101310.97
2023-01-29T19:56:52.230Z,101307.69
2023-01-29T19:59:37.593Z,101307.03
2023-01-29T20:02:23.274Z,101300.78
2023-01-29T20:05:08.479Z,101280.97
2023-01-29T20:07:53.784Z,101279.88
2023-01-29T20:10:38.959Z,101277.53
2023-01-29T20:13:23.942Z,101275.78
2023-01-29T20:16:09.538Z,101269.59
2023-01-29T20:18:54.696Z,101279.00
2023-01-29T20:21:58.597Z,101263.53
2023-01-29T20:24:44.007Z,101261.94
2023-01-29T20:27:28.846Z,101258.72
2023-01-29T20:30:13.989Z,101258.72
2023-01-29T20:32:59.303Z,101245.97
2023-01-29T20:35:44.442Z,101251.28
2023-01-29T20:38:29.990Z,101238.44
2023-01-29T20:41:17.124Z,101236.88
2023-01-29T20:44:02.442Z,101235.03
2023-01-29T20:46:47.548Z,101243.22
2023-01-29T20:49:32.700Z,101231.50
2023-01-29T20:52:17.736Z,101234.22
2023-01-29T20:55:06.096Z,101226.78
2023-01-29T20:58:05.832Z,101233.63
2023-01-29T21:00:51.613Z,101218.34
2023-01-29T21:03:38.203Z,101208.28
2023-01-29T21:06:23.660Z,101220.22
2023-01-29T21:09:08.757Z,101215.50
2023-01-29T21:11:53.598Z,101222.28
2023-01-29T21:14:38.588Z,101231.91
2023-01-29T21:17:23.638Z,101218.28
2023-01-29T21:20:09.487Z,101195.63
2023-01-29T21:22:54.612Z,101194.06
2023-01-29T21:25:40.025Z,101204.84
2023-01-29T21:28:24.977Z,101210.22
2023-01-29T21:31:12.661Z,101193.56
2023-01-29T21:33:57.585Z,101187.09
2023-01-29T21:36:42.424Z,101198.19
2023-01-29T21:39:27.258Z,101195.81
2023-01-29T21:42:12.344Z,101196.81
2023-01-29T21:44:57.677Z,101200.53
2023-01-29T21:47:42.957Z,101202.28
2023-01-29T21:50:28.129Z,101201.47
2023-01-29T21:53:13.216Z,101200.28
2023-01-29T21:56:03.470Z,101195.19
2023-01-29T21:58:51.973Z,101195.38
2023-01-29T22:01:38.896Z,101182.44
2023-01-29T22:04:24.008Z,101152.84
2023-01-29T22:07:10.160Z,101158.13
2023-01-29T22:09:55.222Z,101167.63
2023-01-29T22:12:41.308Z,101172.91
2023-01-29T22:15:26.386Z,101173.91
2023-01-29T22:18:11.592Z,101174.84
2023-01-29T22:20:57.736Z,101179.00
2023-01-29T22:23:42.819Z,101172.22
2023-01-29T22:26:28.396Z,101170.56
2023-01-29T22:29:14.307Z,101176.53
2023-01-29T22:31:59.599Z,101161.16
2023-01-29T22:34:44.432Z,101157.13
2023-01-29T22:37:29.421Z,101147.09
2023-01-29T22:40:14.587Z,101150.53
2023-01-29T22:42:59.754Z,101157.66
2023-01-29T22:45:44.601Z,101153.53
2023-01-29T22:48:29.914Z,101132.28
2023-01-29T22:51:14.818Z,101130.78
2023-01-29T22:53:59.748Z,101128.59
2023-01-29T22:56:45.316Z,101109.97
2023-01-29T22:59:31.008Z,101108.28
2023-01-29T23:02:16.317Z,101104.41
2023-01-29T23:05:01.531Z,101091.59
2023-01-29T23:07:46.899Z,101056.63
2023-01-29T23:10:32.292Z,101050.66
2023-01-29T23:13:17.728Z,101037.91
2023-01-29T23:16:03.063Z,100998.94
2023-01-29T23:18:53.550Z,100983.91
2023-01-29T23:21:38.624Z,100965.97
2023-01-29T23:24:23.727Z,100985.50
2023-01-29T23:27:10.022Z,100969.47
2023-01-29T23:29:54.845Z,100982.47
2023-01-29T23:32:39.673Z,101004.66
2023-01-29T23:35:25.132Z,101037.19
2023-01-29T23:38:10.391Z,101028.94
2023-01-29T23:40:55.358Z,101004.38
2023-01-29T23:43:40.233Z,101008.59
2023-01-29T23:46:25.665Z,100986.63
2023-01-29T23:49:10.930Z,100978.16
2023-01-29T23:51:55.710Z,100964.53
2023-01-29T23:54:40.554Z,100960.47
2023-01-29T23:57:25.330Z,100958.88
